createdAt,value
2023-02-05T00:01:30.978Z,98843.00
2023-02-05T00:03:57.759Z,98838.00
2023-02-05T00:06:24.633Z,98832.00
2023-02-05T00:08:51.454Z,98839.00
2023-02-05T00:11:18.469Z,98839.00
2023-02-05T00:13:45.523Z,98844.00
2023-02-05T00:16:16.588Z,98841.00
2023-02-05T00:18:43.984Z,98841.00
2023-02-05T00:21:12.012Z,98838.00
2023-02-05T00:23:39.588Z,98843.00
2023-02-05T00:26:07.945Z,98844.00
2023-02-05T00:28:36.551Z,98843.00
2023-02-05T00:31:13.439Z,98837.00
2023-02-05T00:33:40.317Z,98837.00
2023-02-05T00:36:08.599Z,98840.00
2023-02-05T00:38:36.496Z,98831.00
2023-02-05T00:41:03.949Z,98830.00
2023-02-05T00:43:31.128Z,98835.00
2023-02-05T00:45:58.296Z,98838.00
2023-02-05T00:48:25.078Z,98835.00
2023-02-05T00:50:53.525Z,98842.00
2023-02-05T00:53:22.362Z,98836.00
2023-02-05T00:55:49.214Z,98831.00
2023-02-05T00:58:16.415Z,98826.00
2023-02-05T01:00:43.439Z,98838.00
2023-02-05T01:03:10.522Z,98835.00
2023-02-05T01:05:38.901Z,98835.00
2023-02-05T01:08:10.552Z,98840.00
2023-02-05T01:10:37.472Z,98839.00
2023-02-05T01:13:05.795Z,98842.00
2023-02-05T01:15:33.606Z,98842.00
2023-02-05T01:18:00.944Z,98834.00
2023-02-05T01:20:27.853Z,98843.00
2023-02-05T01:22:55.262Z,98833.00
2023-02-05T01:25:22.023Z,98843.00
2023-02-05T01:27:48.865Z,98832.00
2023-02-05T01:30:16.085Z,98832.00
2023-02-05T01:32:42.870Z,98831.00
2023-02-05T01:35:10.066Z,98837.00
2023-02-05T01:37:36.861Z,98832.00
2023-02-05T01:40:04.130Z,98825.00
2023-02-05T01:42:32.788Z,98825.00
2023-02-05T01:45:32.498Z,98825.00
2023-02-05T01:48:03.643Z,98819.00
2023-02-05T01:50:41.263Z,98826.00
2023-02-05T01:53:13.865Z,98816.00
2023-02-05T01:55:56.309Z,98818.00
2023-02-05T01:58:27.035Z,98815.00
2023-02-05T02:00:54.486Z,98797.00
2023-02-05T02:03:22.927Z,98801.00
2023-02-05T02:05:49.748Z,98807.00
2023-02-05T02:08:16.542Z,98796.00
2023-02-05T02:10:44.867Z,98787.00
2023-02-05T02:13:13.266Z,98784.00
2023-02-05T02:15:41.204Z,98794.00
2023-02-05T02:18:26.956Z,98792.00
2023-02-05T02:21:27.685Z,98792.00
2023-02-05T02:24:29.004Z,98771.00
2023-02-05T02:27:32.796Z,98775.00
2023-02-05T02:30:29.401Z,98769.00
2023-02-05T02:33:09.225Z,98770.00
2023-02-05T02:35:46.690Z,98769.00
2023-02-05T02:38:32.763Z,98772.00
2023-02-05T02:41:29.937Z,98775.00
2023-02-05T02:44:14.307Z,98771.00
2023-02-05T02:46:48.146Z,98770.00
2023-02-05T02:49:38.959Z,98765.00
2023-02-05T02:52:10.420Z,98762.00
2023-02-05T02:54:39.489Z,98759.00
2023-02-05T02:57:09.697Z,98757.00
2023-02-05T02:59:40.760Z,98775.00
2023-02-05T03:02:11.624Z,98767.00
2023-02-05T03:04:42.270Z,98767.00
2023-02-05T03:07:17.104Z,98761.00
2023-02-05T03:10:03.564Z,98748.00
2023-02-05T03:12:30.791Z,98735.00
2023-02-05T03:14:57.995Z,98735.00
2023-02-05T03:17:26.222Z,98736.00
2023-02-05T03:20:02.334Z,98746.00
2023-02-05T03:22:29.151Z,98744.00
2023-02-05T03:24:56.602Z,98745.00
2023-02-05T03:27:23.563Z,98744.00
2023-02-05T03:29:50.764Z,98738.00
2023-02-05T03:32:40.676Z,98740.00
2023-02-05T03:35:43.184Z,98735.00
2023-02-05T03:38:28.702Z,98736.00
2023-02-05T03:41:00.915Z,98730.00
2023-02-05T03:44:29.568Z,98720.00
2023-02-05T03:47:38.559Z,98711.00
2023-02-05T03:50:31.594Z,98705.00
2023-02-05T03:53:28.059Z,98695.00
2023-02-05T03:56:14.108Z,98700.00
2023-02-05T03:58:46.341Z,98700.00
2023-02-05T04:01:13.985Z,98699.00
2023-02-05T04:03:40.849Z,98700.00
2023-02-05T04:06:08.230Z,98712.00
2023-02-05T04:08:35.012Z,98713.00
2023-02-05T04:11:01.850Z,98717.00
2023-02-05T04:13:28.699Z,98704.00
2023-02-05T04:15:55.498Z,98706.00
2023-02-05T04:18:22.323Z,98710.00
2023-02-05T04:20:49.500Z,98709.00
2023-02-05T04:23:16.259Z,98717.00
2023-02-05T04:25:43.052Z,98715.00
2023-02-05T04:28:10.852Z,98711.00
2023-02-05T04:30:39.245Z,98719.00
2023-02-05T04:33:06.053Z,98716.00
2023-02-05T04:35:33.093Z,98720.00
2023-02-05T04:38:00.157Z,98716.00
2023-02-05T04:40:26.897Z,98726.00
2023-02-05T04:42:53.650Z,98716.00
2023-02-05T04:45:20.838Z,98719.00
2023-02-05T04:47:47.679Z,98714.00
2023-02-05T04:50:14.764Z,98710.00
2023-02-05T04:52:41.550Z,98713.00
2023-02-05T04:55:08.408Z,98712.00
2023-02-05T04:57:35.284Z,98722.00
2023-02-05T05:00:02.305Z,98720.00
2023-02-05T05:02:29.057Z,98718.00
2023-02-05T05:04:55.815Z,98725.00
2023-02-05T05:07:22.576Z,98723.00
2023-02-05T05:09:51.004Z,98719.00
2023-02-05T05:12:19.066Z,98737.00
2023-02-05T05:14:45.813Z,98731.00
2023-02-05T05:17:14.635Z,98731.00
2023-02-05T05:19:41.453Z,98726.00
2023-02-05T05:22:08.239Z,98740.00
2023-02-05T05:24:35.014Z,98736.00
2023-02-05T05:27:01.828Z,98737.00
2023-02-05T05:29:28.604Z,98732.00
2023-02-05T05:31:55.422Z,98730.00
2023-02-05T05:34:22.196Z,98746.00
2023-02-05T05:36:49.020Z,98746.00
2023-02-05T05:39:34.569Z,98734.00
2023-02-05T05:42:20.048Z,98735.00
2023-02-05T05:44:51.864Z,98740.00
2023-02-05T05:47:19.589Z,98745.00
2023-02-05T05:49:46.773Z,98747.00
2023-02-05T05:52:14.142Z,98735.00
2023-02-05T05:54:41.028Z,98747.00
2023-02-05T05:57:08.482Z,98757.00
2023-02-05T05:59:35.337Z,98754.00
2023-02-05T06:02:03.143Z,98741.00
2023-02-05T06:04:30.413Z,98739.00
2023-02-05T06:06:57.524Z,98740.00
2023-02-05T06:09:25.003Z,98740.00
2023-02-05T06:11:51.799Z,98740.00
2023-02-05T06:14:18.624Z,98732.00
2023-02-05T06:16:45.372Z,98724.00
2023-02-05T06:19:12.118Z,98726.00
2023-02-05T06:21:38.952Z,98726.00
2023-02-05T06:24:06.125Z,98741.00
2023-02-05T06:26:32.941Z,98740.00
2023-02-05T06:29:03.217Z,98740.00
2023-02-05T06:31:31.299Z,98749.00
2023-02-05T06:33:58.180Z,98745.00
2023-02-05T06:36:25.323Z,98750.00
2023-02-05T06:38:52.925Z,98749.00
2023-02-05T06:41:19.715Z,98764.00
2023-02-05T06:43:46.487Z,98766.00
2023-02-05T06:46:13.312Z,98761.00
2023-02-05T06:48:40.230Z,98751.00
2023-02-05T06:51:07.009Z,98752.00
2023-02-05T06:53:33.806Z,98748.00
2023-02-05T06:56:00.885Z,98752.00
2023-02-05T06:58:27.733Z,98746.00
2023-02-05T07:00:54.468Z,98754.00
2023-02-05T07:03:21.246Z,98752.00
2023-02-05T07:05:48.010Z,98755.00
2023-02-05T07:08:14.774Z,98760.00
2023-02-05T07:10:41.543Z,98761.00
2023-02-05T07:13:08.666Z,98765.00
2023-02-05T07:15:37.384Z,98768.00
2023-02-05T07:18:05.216Z,98763.00
2023-02-05T07:20:32.214Z,98764.00
2023-02-05T07:23:00.283Z,98766.00
2023-02-05T07:25:27.126Z,98772.00
2023-02-05T07:27:54.143Z,98770.00
2023-02-05T07:30:21.092Z,98770.00
2023-02-05T07:32:47.892Z,98775.00
2023-02-05T07:35:14.766Z,98776.00
2023-02-05T07:37:41.561Z,98794.00
2023-02-05T07:40:09.290Z,98794.00
2023-02-05T07:42:36.219Z,98801.00
2023-02-05T07:45:03.294Z,98792.00
2023-02-05T07:47:30.118Z,98769.00
2023-02-05T07:49:56.872Z,98769.00
2023-02-05T07:52:23.662Z,98774.00
2023-02-05T07:54:50.599Z,98785.00
2023-02-05T07:57:17.426Z,98785.00
2023-02-05T07:59:44.232Z,98781.00
2023-02-05T08:02:12.132Z,98775.00
2023-02-05T08:04:39.011Z,98787.00
2023-02-05T08:07:06.420Z,98793.00
2023-02-05T08:09:33.328Z,98779.00
2023-02-05T08:12:00.072Z,98786.00
2023-02-05T08:14:26.860Z,98795.00
2023-02-05T08:16:53.631Z,98800.00
2023-02-05T08:19:20.383Z,98802.00
2023-02-05T08:21:47.203Z,98799.00
2023-02-05T08:24:13.979Z,98796.00
2023-02-05T08:26:40.881Z,98802.00
2023-02-05T08:29:08.397Z,98794.00
2023-02-05T08:31:36.063Z,98797.00
2023-02-05T08:34:03.322Z,98804.00
2023-02-05T08:36:30.737Z,98802.00
2023-02-05T08:38:57.605Z,98805.00
2023-02-05T08:41:24.553Z,98797.00
2023-02-05T08:43:51.423Z,98777.00
2023-02-05T08:46:22.670Z,98774.00
2023-02-05T08:48:49.436Z,98782.00
2023-02-05T08:51:17.415Z,98778.00
2023-02-05T08:53:44.227Z,98770.00
2023-02-05T08:56:13.859Z,98766.00
2023-02-05T08:58:41.440Z,98766.00
2023-02-05T09:01:13.660Z,98767.00
2023-02-05T09:03:40.929Z,98763.00
2023-02-05T09:06:12.072Z,98760.00
2023-02-05T09:08:39.093Z,98763.00
2023-02-05T09:11:06.608Z,98752.00
2023-02-05T09:13:33.932Z,98761.00
2023-02-05T09:16:01.098Z,98752.00
2023-02-05T09:18:27.896Z,98741.00
2023-02-05T09:20:54.727Z,98749.00
2023-02-05T09:23:21.733Z,98753.00
2023-02-05T09:25:48.817Z,98741.00
2023-02-05T09:28:15.819Z,98740.00
2023-02-05T09:30:45.868Z,98733.00
2023-02-05T09:33:13.567Z,98747.00
2023-02-05T09:35:41.173Z,98749.00
2023-02-05T09:38:08.545Z,98747.00
2023-02-05T09:41:05.423Z,98753.00
2023-02-05T09:43:57.651Z,98752.00
2023-02-05T09:46:50.796Z,98735.00
2023-02-05T09:49:32.799Z,98741.00
2023-02-05T09:52:11.750Z,98744.00
2023-02-05T09:54:46.543Z,98732.00
2023-02-05T09:57:28.888Z,98731.00
2023-02-05T09:59:56.000Z,98735.00
2023-02-05T10:02:49.916Z,98734.00
2023-02-05T10:05:18.310Z,98746.00
2023-02-05T10:08:28.412Z,98754.00
2023-02-05T10:10:57.338Z,98753.00
2023-02-05T10:13:39.829Z,98753.00
2023-02-05T10:16:06.626Z,98755.00
2023-02-05T10:18:39.524Z,98751.00
2023-02-05T10:21:40.336Z,98735.00
2023-02-05T10:24:38.806Z,98732.00
2023-02-05T10:27:27.717Z,98717.00
2023-02-05T10:30:18.366Z,98729.00
2023-02-05T10:33:00.550Z,98730.00
2023-02-05T10:36:12.215Z,98740.00
2023-02-05T10:38:45.158Z,98736.00
2023-02-05T10:41:44.661Z,98733.00
2023-02-05T10:44:23.503Z,98731.00
2023-02-05T10:46:55.321Z,98715.00
2023-02-05T10:49:31.966Z,98699.00
2023-02-05T10:51:58.782Z,98708.00
2023-02-05T10:54:33.770Z,98698.00
2023-02-05T10:57:01.666Z,98700.00
2023-02-05T10:59:35.766Z,98693.00
2023-02-05T11:02:09.056Z,98696.00
2023-02-05T11:04:48.282Z,98688.00
2023-02-05T11:07:33.294Z,98677.00
2023-02-05T11:10:27.541Z,98667.00
2023-02-05T11:13:21.594Z,98666.00
2023-02-05T11:16:11.097Z,98656.00
2023-02-05T11:18:47.171Z,98650.00
2023-02-05T11:21:14.063Z,98653.00
2023-02-05T11:23:56.367Z,98637.00
2023-02-05T11:26:26.222Z,98634.00
2023-02-05T11:28:53.101Z,98626.00
2023-02-05T11:31:30.603Z,98622.00
2023-02-05T11:34:16.051Z,98620.00
2023-02-05T11:36:55.880Z,98615.00
2023-02-05T11:39:35.853Z,98629.00
2023-02-05T11:42:23.203Z,98616.00
2023-02-05T11:44:58.746Z,98615.00
2023-02-05T11:47:33.926Z,98619.00
2023-02-05T11:50:02.641Z,98609.00
2023-02-05T11:52:35.188Z,98612.00
2023-02-05T11:55:02.130Z,98620.00
2023-02-05T11:57:39.220Z,98610.00
2023-02-05T12:00:08.705Z,98599.00
2023-02-05T12:02:41.017Z,98613.00
2023-02-05T12:05:13.735Z,98603.00
2023-02-05T12:08:03.048Z,98597.00
2023-02-05T12:10:33.164Z,98603.00
2023-02-05T12:13:08.909Z,98603.00
2023-02-05T12:15:55.756Z,98605.00
2023-02-05T12:18:56.993Z,98592.00
2023-02-05T12:21:51.446Z,98584.00
2023-02-05T12:24:58.536Z,98576.00
2023-02-05T12:28:11.337Z,98581.00
2023-02-05T12:31:07.276Z,98580.00
2023-02-05T12:34:29.300Z,98572.00
2023-02-05T12:37:21.313Z,98567.00
2023-02-05T12:40:01.312Z,98561.00
2023-02-05T12:42:54.639Z,98551.00
2023-02-05T12:45:39.877Z,98555.00
2023-02-05T12:49:06.858Z,98550.00
2023-02-05T12:52:00.774Z,98547.00
2023-02-05T12:54:54.679Z,98548.00
2023-02-05T12:57:39.980Z,98538.00
2023-02-05T13:00:16.324Z,98528.00
2023-02-05T13:03:17.245Z,98508.00
2023-02-05T13:05:59.096Z,98499.00
2023-02-05T13:08:57.361Z,98509.00
2023-02-05T13:11:47.484Z,98501.00
2023-02-05T13:14:26.116Z,98510.00
2023-02-05T13:17:18.146Z,98514.00
2023-02-05T13:19:54.560Z,98512.00
2023-02-05T13:22:46.110Z,98503.00
2023-02-05T13:25:37.989Z,98501.00
2023-02-05T13:28:42.635Z,98495.00
2023-02-05T13:31:25.516Z,98499.00
2023-02-05T13:33:55.753Z,98501.00
2023-02-05T13:36:27.060Z,98506.00
2023-02-05T13:39:35.228Z,98504.00
2023-02-05T13:42:34.214Z,98493.00
2023-02-05T13:45:23.647Z,98477.00
2023-02-05T13:48:20.850Z,98494.00
2023-02-05T13:51:12.055Z,98485.00
2023-02-05T13:54:11.209Z,98487.00
2023-02-05T13:57:21.261Z,98492.00
2023-02-05T13:59:53.043Z,98493.00
2023-02-05T14:02:38.636Z,98477.00
2023-02-05T14:05:06.522Z,98484.00
2023-02-05T14:07:43.552Z,98484.00
2023-02-05T14:10:37.663Z,98484.00
2023-02-05T14:13:24.508Z,98479.00
2023-02-05T14:15:54.036Z,98481.00
2023-02-05T14:18:39.919Z,98487.00
2023-02-05T14:21:31.331Z,98484.00
2023-02-05T14:23:58.980Z,98476.00
2023-02-05T14:26:51.530Z,98482.00
2023-02-05T14:29:44.242Z,98474.00
2023-02-05T14:32:13.502Z,98479.00
2023-02-05T14:34:40.177Z,98476.00
2023-02-05T14:37:31.762Z,98466.00
2023-02-05T14:39:59.483Z,98463.00
2023-02-05T14:42:30.035Z,98465.00
2023-02-05T14:45:00.343Z,98464.00
2023-02-05T14:47:32.949Z,98460.00
2023-02-05T14:50:10.026Z,98442.00
2023-02-05T14:52:48.488Z,98452.00
2023-02-05T14:55:15.124Z,98446.00
2023-02-05T14:57:50.990Z,98449.00
2023-02-05T15:00:29.887Z,98456.00
2023-02-05T15:03:06.067Z,98448.00
2023-02-05T15:05:45.585Z,98467.00
2023-02-05T15:08:36.300Z,98446.00
2023-02-05T15:11:13.382Z,98440.00
2023-02-05T15:13:40.713Z,98453.00
2023-02-05T15:16:16.430Z,98461.00
2023-02-05T15:18:59.999Z,98477.00
2023-02-05T15:21:33.798Z,98465.00
2023-02-05T15:24:06.045Z,98474.00
2023-02-05T15:26:47.059Z,98467.00
2023-02-05T15:29:22.742Z,98477.00
2023-02-05T15:32:00.542Z,98473.00
2023-02-05T15:34:53.172Z,98471.00
2023-02-05T15:37:57.135Z,98463.00
2023-02-05T15:40:33.588Z,98467.00
2023-02-05T15:43:16.364Z,98455.00
2023-02-05T15:45:46.230Z,98460.00
2023-02-05T15:48:17.895Z,98463.00
2023-02-05T15:50:51.499Z,98449.00
2023-02-05T15:53:38.226Z,98451.00
2023-02-05T15:56:35.440Z,98453.00
2023-02-05T15:59:16.450Z,98444.00
2023-02-05T16:02:20.392Z,98449.00
2023-02-05T16:04:58.823Z,98461.00
2023-02-05T16:07:37.018Z,98459.00
2023-02-05T16:10:21.989Z,98458.00
2023-02-05T16:13:06.217Z,98471.00
2023-02-05T16:15:47.922Z,98465.00
2023-02-05T16:18:27.866Z,98472.00
2023-02-05T16:21:02.189Z,98474.00
2023-02-05T16:23:39.069Z,98470.00
2023-02-05T16:26:38.586Z,98472.00
2023-02-05T16:29:20.159Z,98489.00
2023-02-05T16:31:59.600Z,98487.00
2023-02-05T16:34:27.291Z,98488.00
2023-02-05T16:36:58.127Z,98489.00
2023-02-05T16:39:38.679Z,98488.00
2023-02-05T16:42:26.179Z,98493.00
2023-02-05T16:45:08.181Z,98499.00
2023-02-05T16:47:38.479Z,98500.00
2023-02-05T16:50:36.176Z,98504.00
2023-02-05T16:53:03.847Z,98507.00
2023-02-05T16:55:31.350Z,98496.00
2023-02-05T16:58:05.172Z,98496.00
2023-02-05T17:00:33.885Z,98502.00
2023-02-05T17:03:18.602Z,98508.00
2023-02-05T17:05:57.357Z,98505.00
2023-02-05T17:08:32.815Z,98509.00
2023-02-05T17:11:03.545Z,98516.00
2023-02-05T17:13:40.744Z,98510.00
2023-02-05T17:16:39.813Z,98511.00
2023-02-05T17:19:25.164Z,98508.00
2023-02-05T17:22:13.649Z,98507.00
2023-02-05T17:24:45.724Z,98506.00
2023-02-05T17:27:21.561Z,98513.00
2023-02-05T17:29:48.923Z,98507.00
2023-02-05T17:32:19.458Z,98518.00
2023-02-05T17:34:46.803Z,98513.00
2023-02-05T17:37:14.221Z,98510.00
2023-02-05T17:39:41.210Z,98523.00
2023-02-05T17:42:22.146Z,98530.00
2023-02-05T17:44:49.686Z,98521.00
2023-02-05T17:47:16.671Z,98519.00
2023-02-05T17:49:43.440Z,98522.00
2023-02-05T17:52:10.974Z,98524.00
2023-02-05T17:54:38.020Z,98524.00
2023-02-05T17:57:19.423Z,98526.00
2023-02-05T17:59:47.917Z,98527.00
2023-02-05T18:02:15.839Z,98538.00
2023-02-05T18:04:44.685Z,98536.00
2023-02-05T18:07:30.976Z,98527.00
2023-02-05T18:09:59.368Z,98535.00
2023-02-05T18:12:26.916Z,98534.00
2023-02-05T18:14:54.582Z,98524.00
2023-02-05T18:17:22.765Z,98534.00
2023-02-05T18:19:49.536Z,98534.00
2023-02-05T18:22:16.349Z,98539.00
2023-02-05T18:24:43.144Z,98546.00
2023-02-05T18:27:11.931Z,98535.00
2023-02-05T18:29:40.018Z,98539.00
2023-02-05T18:32:07.784Z,98540.00
2023-02-05T18:34:34.542Z,98546.00
2023-02-05T18:37:01.350Z,98537.00
2023-02-05T18:39:29.462Z,98543.00
2023-02-05T18:41:57.378Z,98534.00
2023-02-05T18:44:25.332Z,98545.00
2023-02-05T18:46:52.592Z,98539.00
2023-02-05T18:49:19.490Z,98539.00
2023-02-05T18:51:46.614Z,98546.00
2023-02-05T18:54:13.430Z,98548.00
2023-02-05T18:56:40.261Z,98555.00
2023-02-05T18:59:09.515Z,98557.00
2023-02-05T19:01:38.693Z,98556.00
2023-02-05T19:04:14.657Z,98556.00
2023-02-05T19:06:43.852Z,98560.00
2023-02-05T19:09:11.611Z,98570.00
2023-02-05T19:11:41.453Z,98572.00
2023-02-05T19:14:12.830Z,98566.00
2023-02-05T19:16:41.064Z,98566.00
2023-02-05T19:19:08.162Z,98578.00
2023-02-05T19:21:36.086Z,98578.00
2023-02-05T19:24:09.711Z,98583.00
2023-02-05T19:26:39.204Z,98589.00
2023-02-05T19:29:10.802Z,98588.00
2023-02-05T19:31:38.101Z,98592.00
2023-02-05T19:34:06.220Z,98596.00
2023-02-05T19:36:33.790Z,98595.00
2023-02-05T19:39:04.241Z,98587.00
2023-02-05T19:41:33.714Z,98591.00
2023-02-05T19:44:06.184Z,98589.00
2023-02-05T19:46:38.320Z,98587.00
2023-02-05T19:49:14.637Z,98584.00
2023-02-05T19:51:44.686Z,98585.00
2023-02-05T19:54:11.694Z,98591.00
2023-02-05T19:56:38.610Z,98596.00
2023-02-05T19:59:09.175Z,98592.00
2023-02-05T20:01:38.440Z,98601.00
2023-02-05T20:04:11.470Z,98599.00
2023-02-05T20:06:39.417Z,98599.00
2023-02-05T20:09:10.717Z,98597.00
2023-02-05T20:11:42.400Z,98598.00
2023-02-05T20:14:10.461Z,98597.00
2023-02-05T20:16:40.270Z,98597.00
2023-02-05T20:19:10.038Z,98607.00
2023-02-05T20:21:37.903Z,98611.00
2023-02-05T20:24:07.229Z,98607.00
2023-02-05T20:26:35.365Z,98615.00
2023-02-05T20:29:20.609Z,98606.00
2023-02-05T20:31:51.073Z,98611.00
2023-02-05T20:34:22.549Z,98616.00
2023-02-05T20:36:56.027Z,98619.00
2023-02-05T20:39:26.403Z,98617.00
2023-02-05T20:41:53.234Z,98615.00
2023-02-05T20:44:20.324Z,98613.00
2023-02-05T20:46:47.915Z,98619.00
2023-02-05T20:49:14.986Z,98625.00
2023-02-05T20:51:43.220Z,98625.00
2023-02-05T20:54:11.193Z,98613.00
2023-02-05T20:56:38.441Z,98626.00
2023-02-05T20:59:07.958Z,98624.00
2023-02-05T21:01:37.149Z,98624.00
2023-02-05T21:04:06.512Z,98639.00
2023-02-05T21:06:38.474Z,98636.00
2023-02-05T21:09:06.830Z,98636.00
2023-02-05T21:11:33.887Z,98634.00
2023-02-05T21:14:00.723Z,98637.00
2023-02-05T21:16:28.228Z,98642.00
2023-02-05T21:18:55.577Z,98643.00
2023-02-05T21:21:26.402Z,98648.00
2023-02-05T21:23:59.981Z,98656.00
2023-02-05T21:26:37.355Z,98656.00
2023-02-05T21:29:10.195Z,98658.00
2023-02-05T21:31:45.955Z,98658.00
2023-02-05T21:34:21.656Z,98662.00
2023-02-05T21:36:48.946Z,98667.00
2023-02-05T21:39:16.236Z,98673.00
2023-02-05T21:41:45.536Z,98675.00
2023-02-05T21:44:12.808Z,98678.00
2023-02-05T21:46:39.982Z,98672.00
2023-02-05T21:49:06.829Z,98682.00
2023-02-05T21:51:35.086Z,98693.00
2023-02-05T21:54:04.284Z,98682.00
2023-02-05T21:56:34.622Z,98690.00
2023-02-05T21:59:01.964Z,98683.00
2023-02-05T22:01:32.759Z,98698.00
2023-02-05T22:04:08.485Z,98701.00
2023-02-05T22:06:36.061Z,98696.00
2023-02-05T22:09:05.986Z,98699.00
2023-02-05T22:11:33.538Z,98701.00
2023-02-05T22:14:00.348Z,98710.00
2023-02-05T22:16:33.265Z,98706.00
2023-02-05T22:19:01.813Z,98708.00
2023-02-05T22:21:45.619Z,98711.00
2023-02-05T22:24:18.047Z,98703.00
2023-02-05T22:26:47.047Z,98712.00
2023-02-05T22:29:17.588Z,98711.00
2023-02-05T22:31:46.374Z,98712.00
2023-02-05T22:34:13.262Z,98715.00
2023-02-05T22:36:40.043Z,98714.00
2023-02-05T22:39:07.453Z,98721.00
2023-02-05T22:41:40.747Z,98731.00
2023-02-05T22:44:10.444Z,98739.00
2023-02-05T22:46:43.944Z,98739.00
2023-02-05T22:49:15.133Z,98747.00
2023-02-05T22:51:42.564Z,98746.00
2023-02-05T22:54:13.085Z,98748.00
2023-02-05T22:56:39.833Z,98745.00
2023-02-05T22:59:07.076Z,98756.00
2023-02-05T23:01:36.126Z,98751.00
2023-02-05T23:04:05.116Z,98752.00
2023-02-05T23:06:38.767Z,98762.00
2023-02-05T23:09:16.908Z,98755.00
2023-02-05T23:11:45.111Z,98763.00
2023-02-05T23:14:14.861Z,98766.00
2023-02-05T23:16:46.085Z,98760.00
2023-02-05T23:19:22.601Z,98766.00
2023-02-05T23:21:49.728Z,98765.00
2023-02-05T23:24:17.860Z,98772.00
2023-02-05T23:26:48.565Z,98767.00
2023-02-05T23:29:16.765Z,98762.00
2023-02-05T23:31:44.283Z,98767.00
2023-02-05T23:34:12.324Z,98766.00
2023-02-05T23:36:39.253Z,98766.00
2023-02-05T23:39:06.075Z,98772.00
2023-02-05T23:41:35.982Z,98778.00
2023-02-05T23:44:08.303Z,98781.00
2023-02-05T23:46:36.705Z,98793.00
2023-02-05T23:49:04.934Z,98783.00
2023-02-05T23:51:32.536Z,98775.00
2023-02-05T23:53:59.700Z,98771.00
2023-02-05T23:56:26.698Z,98774.00
2023-02-05T23:58:53.539Z,98780.00
